sensor_id;sensor_type;location;lat;lon;timestamp;P1;durP1;ratioP1;P2;durP2;ratioP2
28529;SDS011;15737;49.760;6.632;2023-01-05T00:01:53;0.20;;;0.20;;
28529;SDS011;15737;49.760;6.632;2023-01-05T00:04:18;0.50;;;0.30;;
28529;SDS011;15737;49.760;6.632;2023-01-05T00:06:44;0.20;;;0.20;;
28529;SDS011;15737;49.760;6.632;2023-01-05T00:09:11;2.50;;;0.10;;
28529;SDS011;15737;49.760;6.632;2023-01-05T00:11:38;0.83;;;0.20;;
28529;SDS011;15737;49.760;6.632;2023-01-05T00:14:24;0.10;;;0.10;;
28529;SDS011;15737;49.760;6.632;2023-01-05T00:17:10;0.20;;;0.20;;
28529;SDS011;15737;49.760;6.632;2023-01-05T00:19:57;0.20;;;0.20;;
28529;SDS011;15737;49.760;6.632;2023-01-05T00:22:43;0.10;;;0.10;;
28529;SDS011;15737;49.760;6.632;2023-01-05T00:25:15;0.20;;;0.20;;
28529;SDS011;15737;49.760;6.632;2023-01-05T00:27:51;0.50;;;0.40;;
28529;SDS011;15737;49.760;6.632;2023-01-05T00:30:19;0.40;;;0.40;;
28529;SDS011;15737;49.760;6.632;2023-01-05T00:35:31;0.63;;;0.50;;
28529;SDS011;15737;49.760;6.632;2023-01-05T00:37:56;0.53;;;0.40;;
28529;SDS011;15737;49.760;6.632;2023-01-05T00:40:22;1.07;;;0.20;;
28529;SDS011;15737;49.760;6.632;2023-01-05T00:42:48;2.10;;;0.50;;
28529;SDS011;15737;49.760;6.632;2023-01-05T00:45:14;0.60;;;0.40;;
28529;SDS011;15737;49.760;6.632;2023-01-05T00:47:41;1.90;;;0.10;;
28529;SDS011;15737;49.760;6.632;2023-01-05T00:50:07;0.10;;;0.10;;
28529;SDS011;15737;49.760;6.632;2023-01-05T00:52:36;0.80;;;0.43;;
28529;SDS011;15737;49.760;6.632;2023-01-05T00:55:01;0.20;;;0.10;;
28529;SDS011;15737;49.760;6.632;2023-01-05T00:59:57;0.17;;;0.17;;
28529;SDS011;15737;49.760;6.632;2023-01-05T01:02:23;0.47;;;0.30;;
28529;SDS011;15737;49.760;6.632;2023-01-05T01:04:48;0.10;;;0.10;;
28529;SDS011;15737;49.760;6.632;2023-01-05T01:07:14;1.40;;;0.10;;
28529;SDS011;15737;49.760;6.632;2023-01-05T01:09:42;0.20;;;0.10;;
28529;SDS011;15737;49.760;6.632;2023-01-05T01:12:08;1.10;;;0.30;;
28529;SDS011;15737;49.760;6.632;2023-01-05T01:14:34;2.97;;;0.57;;
28529;SDS011;15737;49.760;6.632;2023-01-05T01:16:59;2.73;;;0.63;;
28529;SDS011;15737;49.760;6.632;2023-01-05T01:19:25;7.03;;;0.53;;
28529;SDS011;15737;49.760;6.632;2023-01-05T01:21:51;5.17;;;0.60;;
28529;SDS011;15737;49.760;6.632;2023-01-05T01:24:18;2.00;;;0.37;;
28529;SDS011;15737;49.760;6.632;2023-01-05T01:26:46;3.77;;;0.60;;
28529;SDS011;15737;49.760;6.632;2023-01-05T01:29:11;2.13;;;0.73;;
28529;SDS011;15737;49.760;6.632;2023-01-05T01:31:37;1.20;;;0.40;;
28529;SDS011;15737;49.760;6.632;2023-01-05T01:34:03;3.67;;;0.60;;
28529;SDS011;15737;49.760;6.632;2023-01-05T01:36:29;1.27;;;0.23;;
28529;SDS011;15737;49.760;6.632;2023-01-05T01:38:55;3.10;;;0.93;;
28529;SDS011;15737;49.760;6.632;2023-01-05T01:41:20;1.40;;;0.33;;
28529;SDS011;15737;49.760;6.632;2023-01-05T01:46:16;2.53;;;0.50;;
28529;SDS011;15737;49.760;6.632;2023-01-05T01:48:47;3.60;;;0.87;;
28529;SDS011;15737;49.760;6.632;2023-01-05T01:51:18;1.33;;;0.60;;
28529;SDS011;15737;49.760;6.632;2023-01-05T01:53:51;6.67;;;0.80;;
28529;SDS011;15737;49.760;6.632;2023-01-05T01:56:56;0.83;;;0.27;;
28529;SDS011;15737;49.760;6.632;2023-01-05T01:59:22;5.27;;;0.77;;
28529;SDS011;15737;49.760;6.632;2023-01-05T02:01:50;4.87;;;0.97;;
28529;SDS011;15737;49.760;6.632;2023-01-05T02:04:18;2.00;;;0.53;;
28529;SDS011;15737;49.760;6.632;2023-01-05T02:06:44;8.97;;;0.93;;
28529;SDS011;15737;49.760;6.632;2023-01-05T02:14:49;6.23;;;1.03;;
28529;SDS011;15737;49.760;6.632;2023-01-05T02:31:08;9.93;;;1.43;;
28529;SDS011;15737;49.760;6.632;2023-01-05T02:41:40;6.63;;;1.17;;
28529;SDS011;15737;49.760;6.632;2023-01-05T02:44:17;9.00;;;1.50;;
28529;SDS011;15737;49.760;6.632;2023-01-05T02:46:44;9.40;;;0.90;;
28529;SDS011;15737;49.760;6.632;2023-01-05T02:49:13;3.97;;;1.10;;
28529;SDS011;15737;49.760;6.632;2023-01-05T02:52:08;10.20;;;1.10;;
28529;SDS011;15737;49.760;6.632;2023-01-05T02:54:59;7.23;;;1.00;;
28529;SDS011;15737;49.760;6.632;2023-01-05T02:57:37;14.43;;;1.77;;
28529;SDS011;15737;49.760;6.632;2023-01-05T03:05:35;5.53;;;0.93;;
28529;SDS011;15737;49.760;6.632;2023-01-05T03:10:59;11.87;;;2.23;;
28529;SDS011;15737;49.760;6.632;2023-01-05T03:16:33;2.80;;;1.13;;
28529;SDS011;15737;49.760;6.632;2023-01-05T03:20:15;7.10;;;1.10;;
28529;SDS011;15737;49.760;6.632;2023-01-05T03:23:24;3.10;;;0.70;;
28529;SDS011;15737;49.760;6.632;2023-01-05T03:26:11;5.87;;;0.47;;
28529;SDS011;15737;49.760;6.632;2023-01-05T03:29:15;7.73;;;1.40;;
28529;SDS011;15737;49.760;6.632;2023-01-05T03:37:43;3.17;;;1.40;;
28529;SDS011;15737;49.760;6.632;2023-01-05T03:40:31;4.07;;;1.07;;
28529;SDS011;15737;49.760;6.632;2023-01-05T03:42:58;3.80;;;0.87;;
28529;SDS011;15737;49.760;6.632;2023-01-05T03:45:45;8.13;;;1.10;;
28529;SDS011;15737;49.760;6.632;2023-01-05T03:51:22;7.10;;;1.20;;
28529;SDS011;15737;49.760;6.632;2023-01-05T03:56:21;8.23;;;1.00;;
28529;SDS011;15737;49.760;6.632;2023-01-05T03:58:47;6.20;;;1.30;;
28529;SDS011;15737;49.760;6.632;2023-01-05T04:01:53;6.83;;;1.30;;
28529;SDS011;15737;49.760;6.632;2023-01-05T04:04:19;4.23;;;1.00;;
28529;SDS011;15737;49.760;6.632;2023-01-05T04:06:44;2.20;;;0.70;;
28529;SDS011;15737;49.760;6.632;2023-01-05T04:09:10;4.07;;;0.93;;
28529;SDS011;15737;49.760;6.632;2023-01-05T04:16:47;7.13;;;1.53;;
28529;SDS011;15737;49.760;6.632;2023-01-05T04:20:12;7.67;;;1.40;;
28529;SDS011;15737;49.760;6.632;2023-01-05T04:22:38;2.17;;;0.70;;
28529;SDS011;15737;49.760;6.632;2023-01-05T04:25:26;6.00;;;0.80;;
28529;SDS011;15737;49.760;6.632;2023-01-05T04:27:51;8.10;;;1.50;;
28529;SDS011;15737;49.760;6.632;2023-01-05T04:30:17;8.50;;;1.30;;
28529;SDS011;15737;49.760;6.632;2023-01-05T04:32:51;7.27;;;1.27;;
28529;SDS011;15737;49.760;6.632;2023-01-05T04:35:18;6.87;;;1.10;;
28529;SDS011;15737;49.760;6.632;2023-01-05T04:37:43;10.73;;;1.60;;
28529;SDS011;15737;49.760;6.632;2023-01-05T04:40:10;8.90;;;1.37;;
28529;SDS011;15737;49.760;6.632;2023-01-05T04:42:35;6.20;;;1.40;;
28529;SDS011;15737;49.760;6.632;2023-01-05T04:45:04;8.77;;;1.47;;
28529;SDS011;15737;49.760;6.632;2023-01-05T04:52:38;3.50;;;0.80;;
28529;SDS011;15737;49.760;6.632;2023-01-05T04:55:04;10.50;;;1.60;;
28529;SDS011;15737;49.760;6.632;2023-01-05T04:57:30;5.67;;;1.20;;
28529;SDS011;15737;49.760;6.632;2023-01-05T04:59:55;6.77;;;1.10;;
28529;SDS011;15737;49.760;6.632;2023-01-05T05:02:21;9.60;;;1.50;;
28529;SDS011;15737;49.760;6.632;2023-01-05T05:07:39;8.07;;;1.23;;
28529;SDS011;15737;49.760;6.632;2023-01-05T05:13:35;9.07;;;1.57;;
28529;SDS011;15737;49.760;6.632;2023-01-05T05:16:00;6.60;;;1.67;;
28529;SDS011;15737;49.760;6.632;2023-01-05T05:18:26;13.67;;;1.60;;
28529;SDS011;15737;49.760;6.632;2023-01-05T05:20:51;6.87;;;1.50;;
28529;SDS011;15737;49.760;6.632;2023-01-05T05:23:17;7.60;;;1.33;;
28529;SDS011;15737;49.760;6.632;2023-01-05T05:26:00;9.33;;;1.27;;
28529;SDS011;15737;49.760;6.632;2023-01-05T05:28:28;8.27;;;1.50;;
28529;SDS011;15737;49.760;6.632;2023-01-05T05:30:54;1.30;;;0.57;;
28529;SDS011;15737;49.760;6.632;2023-01-05T05:33:21;8.80;;;1.07;;
28529;SDS011;15737;49.760;6.632;2023-01-05T05:35:47;6.70;;;0.93;;
28529;SDS011;15737;49.760;6.632;2023-01-05T05:38:12;4.60;;;0.97;;
28529;SDS011;15737;49.760;6.632;2023-01-05T05:40:43;11.23;;;1.70;;
28529;SDS011;15737;49.760;6.632;2023-01-05T05:43:34;15.03;;;1.43;;
28529;SDS011;15737;49.760;6.632;2023-01-05T05:45:59;7.10;;;1.03;;
28529;SDS011;15737;49.760;6.632;2023-01-05T05:50:55;8.83;;;1.17;;
28529;SDS011;15737;49.760;6.632;2023-01-05T05:55:54;7.83;;;1.37;;
28529;SDS011;15737;49.760;6.632;2023-01-05T05:58:20;8.77;;;1.63;;
28529;SDS011;15737;49.760;6.632;2023-01-05T06:00:47;7.10;;;1.17;;
28529;SDS011;15737;49.760;6.632;2023-01-05T06:04:13;9.83;;;1.43;;
28529;SDS011;15737;49.760;6.632;2023-01-05T06:26:32;8.27;;;1.20;;
28529;SDS011;15737;49.760;6.632;2023-01-05T06:28:57;12.83;;;1.73;;
28529;SDS011;15737;49.760;6.632;2023-01-05T06:31:23;9.37;;;1.57;;
28529;SDS011;15737;49.760;6.632;2023-01-05T06:33:51;9.53;;;1.20;;
28529;SDS011;15737;49.760;6.632;2023-01-05T06:37:18;6.17;;;1.47;;
28529;SDS011;15737;49.760;6.632;2023-01-05T06:39:44;12.30;;;1.23;;
28529;SDS011;15737;49.760;6.632;2023-01-05T06:42:09;9.33;;;1.30;;
28529;SDS011;15737;49.760;6.632;2023-01-05T06:45:01;9.53;;;1.37;;
28529;SDS011;15737;49.760;6.632;2023-01-05T06:47:27;7.87;;;1.00;;
28529;SDS011;15737;49.760;6.632;2023-01-05T06:49:52;4.93;;;1.17;;
28529;SDS011;15737;49.760;6.632;2023-01-05T06:52:41;8.77;;;1.17;;
28529;SDS011;15737;49.760;6.632;2023-01-05T07:01:16;11.60;;;1.83;;
28529;SDS011;15737;49.760;6.632;2023-01-05T07:04:03;14.13;;;1.70;;
28529;SDS011;15737;49.760;6.632;2023-01-05T07:06:29;8.73;;;1.37;;
28529;SDS011;15737;49.760;6.632;2023-01-05T07:08:55;3.90;;;1.00;;
28529;SDS011;15737;49.760;6.632;2023-01-05T07:13:51;3.07;;;0.60;;
28529;SDS011;15737;49.760;6.632;2023-01-05T07:16:16;8.03;;;1.37;;
28529;SDS011;15737;49.760;6.632;2023-01-05T07:18:43;8.30;;;1.20;;
28529;SDS011;15737;49.760;6.632;2023-01-05T07:21:09;9.07;;;1.67;;
28529;SDS011;15737;49.760;6.632;2023-01-05T07:24:15;6.73;;;1.50;;
28529;SDS011;15737;49.760;6.632;2023-01-05T07:34:24;6.63;;;1.40;;
28529;SDS011;15737;49.760;6.632;2023-01-05T07:36:50;5.97;;;1.20;;
28529;SDS011;15737;49.760;6.632;2023-01-05T07:39:24;7.97;;;1.33;;
28529;SDS011;15737;49.760;6.632;2023-01-05T07:41:50;10.93;;;1.47;;
28529;SDS011;15737;49.760;6.632;2023-01-05T07:44:15;9.40;;;1.73;;
28529;SDS011;15737;49.760;6.632;2023-01-05T07:46:42;8.17;;;1.53;;
28529;SDS011;15737;49.760;6.632;2023-01-05T07:49:07;7.50;;;1.37;;
28529;SDS011;15737;49.760;6.632;2023-01-05T07:51:56;15.33;;;1.43;;
28529;SDS011;15737;49.760;6.632;2023-01-05T07:54:21;6.93;;;1.20;;
28529;SDS011;15737;49.760;6.632;2023-01-05T07:56:47;6.97;;;1.07;;
28529;SDS011;15737;49.760;6.632;2023-01-05T07:59:12;13.90;;;1.90;;
28529;SDS011;15737;49.760;6.632;2023-01-05T08:01:38;6.33;;;1.17;;
28529;SDS011;15737;49.760;6.632;2023-01-05T08:04:07;6.27;;;1.13;;
28529;SDS011;15737;49.760;6.632;2023-01-05T08:06:33;6.37;;;1.00;;
28529;SDS011;15737;49.760;6.632;2023-01-05T08:08:59;6.57;;;1.80;;
28529;SDS011;15737;49.760;6.632;2023-01-05T08:11:44;6.93;;;1.73;;
28529;SDS011;15737;49.760;6.632;2023-01-05T08:14:10;11.17;;;1.73;;
28529;SDS011;15737;49.760;6.632;2023-01-05T08:16:35;7.77;;;1.70;;
28529;SDS011;15737;49.760;6.632;2023-01-05T08:19:01;8.10;;;1.87;;
28529;SDS011;15737;49.760;6.632;2023-01-05T08:21:27;10.60;;;1.63;;
28529;SDS011;15737;49.760;6.632;2023-01-05T08:23:53;7.53;;;1.30;;
28529;SDS011;15737;49.760;6.632;2023-01-05T08:26:20;2.33;;;0.60;;
28529;SDS011;15737;49.760;6.632;2023-01-05T08:33:56;8.33;;;1.90;;
28529;SDS011;15737;49.760;6.632;2023-01-05T08:36:47;10.03;;;1.63;;
28529;SDS011;15737;49.760;6.632;2023-01-05T08:39:59;11.87;;;1.33;;
28529;SDS011;15737;49.760;6.632;2023-01-05T08:42:24;10.87;;;1.90;;
28529;SDS011;15737;49.760;6.632;2023-01-05T08:44:50;5.67;;;1.43;;
28529;SDS011;15737;49.760;6.632;2023-01-05T08:48:01;4.87;;;1.13;;
28529;SDS011;15737;49.760;6.632;2023-01-05T08:52:57;3.60;;;0.83;;
28529;SDS011;15737;49.760;6.632;2023-01-05T08:55:23;3.93;;;1.13;;
28529;SDS011;15737;49.760;6.632;2023-01-05T08:57:55;10.03;;;2.13;;
28529;SDS011;15737;49.760;6.632;2023-01-05T09:00:21;13.03;;;1.70;;
28529;SDS011;15737;49.760;6.632;2023-01-05T09:02:49;6.93;;;1.83;;
28529;SDS011;15737;49.760;6.632;2023-01-05T09:05:15;8.90;;;1.40;;
28529;SDS011;15737;49.760;6.632;2023-01-05T09:10:11;12.53;;;1.97;;
28529;SDS011;15737;49.760;6.632;2023-01-05T09:13:12;11.87;;;1.83;;
28529;SDS011;15737;49.760;6.632;2023-01-05T09:15:40;4.33;;;1.30;;
28529;SDS011;15737;49.760;6.632;2023-01-05T09:18:38;4.63;;;1.50;;
28529;SDS011;15737;49.760;6.632;2023-01-05T09:21:04;5.07;;;1.27;;
28529;SDS011;15737;49.760;6.632;2023-01-05T09:23:30;13.23;;;1.93;;
28529;SDS011;15737;49.760;6.632;2023-01-05T09:25:56;11.50;;;2.10;;
28529;SDS011;15737;49.760;6.632;2023-01-05T09:28:22;7.50;;;1.83;;
28529;SDS011;15737;49.760;6.632;2023-01-05T09:30:47;7.97;;;1.57;;
28529;SDS011;15737;49.760;6.632;2023-01-05T09:33:47;7.97;;;1.60;;
28529;SDS011;15737;49.760;6.632;2023-01-05T09:39:37;13.93;;;2.27;;
28529;SDS011;15737;49.760;6.632;2023-01-05T09:42:06;8.73;;;1.67;;
28529;SDS011;15737;49.760;6.632;2023-01-05T09:45:15;10.77;;;2.10;;
28529;SDS011;15737;49.760;6.632;2023-01-05T09:47:48;8.63;;;1.53;;
28529;SDS011;15737;49.760;6.632;2023-01-05T09:51:31;5.03;;;1.70;;
28529;SDS011;15737;49.760;6.632;2023-01-05T09:57:37;13.70;;;2.40;;
28529;SDS011;15737;49.760;6.632;2023-01-05T10:03:37;9.27;;;1.60;;
28529;SDS011;15737;49.760;6.632;2023-01-05T10:07:04;12.57;;;2.03;;
28529;SDS011;15737;49.760;6.632;2023-01-05T10:13:04;7.83;;;1.57;;
28529;SDS011;15737;49.760;6.632;2023-01-05T10:27:36;12.70;;;2.20;;
28529;SDS011;15737;49.760;6.632;2023-01-05T10:30:12;14.43;;;2.00;;
28529;SDS011;15737;49.760;6.632;2023-01-05T10:42:05;1.83;;;0.60;;
28529;SDS011;15737;49.760;6.632;2023-01-05T10:44:55;14.60;;;2.17;;
28529;SDS011;15737;49.760;6.632;2023-01-05T10:47:27;7.63;;;1.10;;
28529;SDS011;15737;49.760;6.632;2023-01-05T10:49:54;8.17;;;1.77;;
28529;SDS011;15737;49.760;6.632;2023-01-05T10:54:57;6.67;;;0.97;;
28529;SDS011;15737;49.760;6.632;2023-01-05T11:00:21;7.93;;;1.57;;
28529;SDS011;15737;49.760;6.632;2023-01-05T11:03:48;12.63;;;1.87;;
28529;SDS011;15737;49.760;6.632;2023-01-05T11:06:46;8.93;;;2.07;;
28529;SDS011;15737;49.760;6.632;2023-01-05T11:22:46;3.23;;;1.20;;
28529;SDS011;15737;49.760;6.632;2023-01-05T11:36:13;8.33;;;1.63;;
28529;SDS011;15737;49.760;6.632;2023-01-05T11:41:18;3.23;;;1.07;;
28529;SDS011;15737;49.760;6.632;2023-01-05T11:44:36;8.53;;;1.87;;
28529;SDS011;15737;49.760;6.632;2023-01-05T11:48:06;4.53;;;1.23;;
28529;SDS011;15737;49.760;6.632;2023-01-05T11:57:12;8.50;;;1.90;;
28529;SDS011;15737;49.760;6.632;2023-01-05T12:00:31;8.13;;;1.43;;
28529;SDS011;15737;49.760;6.632;2023-01-05T12:12:39;4.60;;;1.47;;
28529;SDS011;15737;49.760;6.632;2023-01-05T12:29:59;6.77;;;1.67;;
28529;SDS011;15737;49.760;6.632;2023-01-05T12:33:31;3.63;;;0.50;;
28529;SDS011;15737;49.760;6.632;2023-01-05T12:56:50;8.00;;;1.43;;
28529;SDS011;15737;49.760;6.632;2023-01-05T13:00:18;13.93;;;2.13;;
28529;SDS011;15737;49.760;6.632;2023-01-05T13:03:29;9.47;;;2.40;;
28529;SDS011;15737;49.760;6.632;2023-01-05T13:06:34;11.23;;;1.80;;
28529;SDS011;15737;49.760;6.632;2023-01-05T13:09:26;2.43;;;0.87;;
28529;SDS011;15737;49.760;6.632;2023-01-05T13:12:26;10.70;;;1.80;;
28529;SDS011;15737;49.760;6.632;2023-01-05T13:32:04;9.97;;;1.60;;
28529;SDS011;15737;49.760;6.632;2023-01-05T13:47:56;13.17;;;1.70;;
28529;SDS011;15737;49.760;6.632;2023-01-05T13:59:27;6.70;;;1.83;;
28529;SDS011;15737;49.760;6.632;2023-01-05T14:02:41;4.10;;;0.97;;
28529;SDS011;15737;49.760;6.632;2023-01-05T14:20:47;5.80;;;1.50;;
28529;SDS011;15737;49.760;6.632;2023-01-05T14:27:11;11.17;;;1.80;;
28529;SDS011;15737;49.760;6.632;2023-01-05T14:32:33;7.67;;;1.73;;
28529;SDS011;15737;49.760;6.632;2023-01-05T14:40:52;5.17;;;1.40;;
28529;SDS011;15737;49.760;6.632;2023-01-05T14:46:46;7.77;;;2.20;;
28529;SDS011;15737;49.760;6.632;2023-01-05T15:05:26;9.03;;;1.67;;
28529;SDS011;15737;49.760;6.632;2023-01-05T15:11:41;8.07;;;1.70;;
28529;SDS011;15737;49.760;6.632;2023-01-05T16:17:37;12.07;;;1.87;;
28529;SDS011;15737;49.760;6.632;2023-01-05T16:20:47;8.87;;;1.80;;
28529;SDS011;15737;49.760;6.632;2023-01-05T17:20:29;6.13;;;1.63;;
28529;SDS011;15737;49.760;6.632;2023-01-05T17:26:07;9.07;;;2.20;;
28529;SDS011;15737;49.760;6.632;2023-01-05T17:46:58;4.10;;;1.60;;
28529;SDS011;15737;49.760;6.632;2023-01-05T17:52:11;10.37;;;2.23;;
28529;SDS011;15737;49.760;6.632;2023-01-05T17:54:42;4.30;;;1.67;;
28529;SDS011;15737;49.760;6.632;2023-01-05T17:57:12;4.70;;;1.80;;
28529;SDS011;15737;49.760;6.632;2023-01-05T18:08:19;7.10;;;2.37;;
28529;SDS011;15737;49.760;6.632;2023-01-05T18:11:17;4.13;;;1.57;;
28529;SDS011;15737;49.760;6.632;2023-01-05T18:13:52;3.90;;;2.27;;
28529;SDS011;15737;49.760;6.632;2023-01-05T18:16:17;6.43;;;1.90;;
28529;SDS011;15737;49.760;6.632;2023-01-05T18:18:43;0.87;;;0.60;;
28529;SDS011;15737;49.760;6.632;2023-01-05T18:22:20;6.90;;;1.60;;
28529;SDS011;15737;49.760;6.632;2023-01-05T18:25:11;5.03;;;1.57;;
28529;SDS011;15737;49.760;6.632;2023-01-05T18:27:37;5.57;;;2.40;;
28529;SDS011;15737;49.760;6.632;2023-01-05T18:33:04;5.00;;;1.67;;
28529;SDS011;15737;49.760;6.632;2023-01-05T18:35:29;7.70;;;2.30;;
28529;SDS011;15737;49.760;6.632;2023-01-05T18:38:10;5.13;;;2.37;;
28529;SDS011;15737;49.760;6.632;2023-01-05T18:40:35;9.70;;;2.07;;
28529;SDS011;15737;49.760;6.632;2023-01-05T18:43:27;4.77;;;2.00;;
28529;SDS011;15737;49.760;6.632;2023-01-05T18:45:54;7.43;;;2.50;;
28529;SDS011;15737;49.760;6.632;2023-01-05T18:48:20;5.13;;;1.80;;
28529;SDS011;15737;49.760;6.632;2023-01-05T18:50:46;3.27;;;1.93;;
28529;SDS011;15737;49.760;6.632;2023-01-05T18:58:38;6.80;;;3.00;;
28529;SDS011;15737;49.760;6.632;2023-01-05T19:01:08;6.93;;;2.83;;
28529;SDS011;15737;49.760;6.632;2023-01-05T19:03:35;8.37;;;3.37;;
28529;SDS011;15737;49.760;6.632;2023-01-05T19:06:03;5.10;;;2.23;;
28529;SDS011;15737;49.760;6.632;2023-01-05T19:13:33;2.50;;;1.83;;
28529;SDS011;15737;49.760;6.632;2023-01-05T19:15:59;6.60;;;2.57;;
28529;SDS011;15737;49.760;6.632;2023-01-05T19:18:25;5.40;;;2.60;;
28529;SDS011;15737;49.760;6.632;2023-01-05T19:20:54;7.27;;;2.70;;
28529;SDS011;15737;49.760;6.632;2023-01-05T19:28:33;4.63;;;2.73;;
28529;SDS011;15737;49.760;6.632;2023-01-05T19:31:06;3.67;;;2.10;;
28529;SDS011;15737;49.760;6.632;2023-01-05T19:33:34;5.97;;;2.47;;
28529;SDS011;15737;49.760;6.632;2023-01-05T19:36:04;4.43;;;1.70;;
28529;SDS011;15737;49.760;6.632;2023-01-05T19:41:09;5.17;;;2.20;;
28529;SDS011;15737;49.760;6.632;2023-01-05T19:43:49;2.83;;;1.93;;
28529;SDS011;15737;49.760;6.632;2023-01-05T19:46:22;4.63;;;2.27;;
28529;SDS011;15737;49.760;6.632;2023-01-05T19:49:53;2.57;;;1.30;;
28529;SDS011;15737;49.760;6.632;2023-01-05T19:53:25;3.27;;;2.30;;
28529;SDS011;15737;49.760;6.632;2023-01-05T20:00:05;0.87;;;0.87;;
28529;SDS011;15737;49.760;6.632;2023-01-05T20:18:06;3.53;;;2.60;;
28529;SDS011;15737;49.760;6.632;2023-01-05T20:20:31;7.03;;;2.83;;
28529;SDS011;15737;49.760;6.632;2023-01-05T20:22:57;3.10;;;2.40;;
28529;SDS011;15737;49.760;6.632;2023-01-05T20:25:22;5.73;;;2.80;;
28529;SDS011;15737;49.760;6.632;2023-01-05T20:27:48;4.77;;;3.03;;
28529;SDS011;15737;49.760;6.632;2023-01-05T20:30:13;4.50;;;2.93;;
28529;SDS011;15737;49.760;6.632;2023-01-05T20:32:39;4.17;;;2.80;;
28529;SDS011;15737;49.760;6.632;2023-01-05T20:35:32;4.60;;;3.27;;
28529;SDS011;15737;49.760;6.632;2023-01-05T20:38:42;3.87;;;2.97;;
28529;SDS011;15737;49.760;6.632;2023-01-05T20:43:45;5.73;;;2.90;;
28529;SDS011;15737;49.760;6.632;2023-01-05T20:46:16;3.20;;;2.77;;
28529;SDS011;15737;49.760;6.632;2023-01-05T20:49:11;5.80;;;3.80;;
28529;SDS011;15737;49.760;6.632;2023-01-05T20:51:40;5.00;;;2.87;;
28529;SDS011;15737;49.760;6.632;2023-01-05T20:55:01;3.73;;;2.47;;
28529;SDS011;15737;49.760;6.632;2023-01-05T20:57:27;2.90;;;2.30;;
28529;SDS011;15737;49.760;6.632;2023-01-05T20:59:52;6.50;;;3.13;;
28529;SDS011;15737;49.760;6.632;2023-01-05T21:02:18;3.60;;;2.50;;
28529;SDS011;15737;49.760;6.632;2023-01-05T21:04:43;2.80;;;2.47;;
28529;SDS011;15737;49.760;6.632;2023-01-05T21:07:09;5.70;;;2.50;;
28529;SDS011;15737;49.760;6.632;2023-01-05T21:09:35;3.50;;;2.20;;
28529;SDS011;15737;49.760;6.632;2023-01-05T21:12:00;3.30;;;2.40;;
28529;SDS011;15737;49.760;6.632;2023-01-05T21:14:26;4.17;;;2.03;;
28529;SDS011;15737;49.760;6.632;2023-01-05T21:19:47;3.27;;;1.83;;
28529;SDS011;15737;49.760;6.632;2023-01-05T21:22:12;1.90;;;1.63;;
28529;SDS011;15737;49.760;6.632;2023-01-05T21:24:38;2.07;;;1.13;;
28529;SDS011;15737;49.760;6.632;2023-01-05T21:27:04;1.67;;;1.37;;
28529;SDS011;15737;49.760;6.632;2023-01-05T21:29:30;1.50;;;1.40;;
28529;SDS011;15737;49.760;6.632;2023-01-05T21:34:34;1.43;;;1.33;;
28529;SDS011;15737;49.760;6.632;2023-01-05T21:36:59;6.40;;;2.00;;
28529;SDS011;15737;49.760;6.632;2023-01-05T21:39:25;1.20;;;1.10;;
28529;SDS011;15737;49.760;6.632;2023-01-05T21:41:52;1.93;;;1.67;;
28529;SDS011;15737;49.760;6.632;2023-01-05T21:44:41;1.43;;;1.20;;
28529;SDS011;15737;49.760;6.632;2023-01-05T21:48:11;2.13;;;1.60;;
28529;SDS011;15737;49.760;6.632;2023-01-05T21:50:37;1.30;;;1.10;;
28529;SDS011;15737;49.760;6.632;2023-01-05T21:53:21;1.50;;;1.23;;
28529;SDS011;15737;49.760;6.632;2023-01-05T21:56:09;2.73;;;2.10;;
28529;SDS011;15737;49.760;6.632;2023-01-05T21:58:49;1.97;;;1.37;;
28529;SDS011;15737;49.760;6.632;2023-01-05T22:03:58;1.67;;;1.07;;
28529;SDS011;15737;49.760;6.632;2023-01-05T22:06:23;1.53;;;1.43;;
28529;SDS011;15737;49.760;6.632;2023-01-05T22:08:52;4.53;;;1.67;;
28529;SDS011;15737;49.760;6.632;2023-01-05T22:11:17;1.47;;;1.37;;
28529;SDS011;15737;49.760;6.632;2023-01-05T22:16:26;2.03;;;1.40;;
28529;SDS011;15737;49.760;6.632;2023-01-05T22:18:51;2.33;;;1.70;;
28529;SDS011;15737;49.760;6.632;2023-01-05T22:21:17;1.60;;;1.50;;
28529;SDS011;15737;49.760;6.632;2023-01-05T22:26:15;1.33;;;1.23;;
28529;SDS011;15737;49.760;6.632;2023-01-05T22:31:26;3.00;;;1.40;;
28529;SDS011;15737;49.760;6.632;2023-01-05T22:33:53;0.73;;;0.70;;
28529;SDS011;15737;49.760;6.632;2023-01-05T22:36:22;0.93;;;0.87;;
28529;SDS011;15737;49.760;6.632;2023-01-05T22:38:49;1.13;;;0.83;;
28529;SDS011;15737;49.760;6.632;2023-01-05T22:41:16;1.10;;;0.77;;
28529;SDS011;15737;49.760;6.632;2023-01-05T22:46:21;1.90;;;0.70;;
28529;SDS011;15737;49.760;6.632;2023-01-05T22:51:46;1.27;;;1.17;;
28529;SDS011;15737;49.760;6.632;2023-01-05T22:54:11;0.93;;;0.93;;
28529;SDS011;15737;49.760;6.632;2023-01-05T22:56:37;0.83;;;0.83;;
28529;SDS011;15737;49.760;6.632;2023-01-05T22:59:03;0.93;;;0.87;;
28529;SDS011;15737;49.760;6.632;2023-01-05T23:01:30;0.80;;;0.80;;
28529;SDS011;15737;49.760;6.632;2023-01-05T23:06:44;2.37;;;0.70;;
28529;SDS011;15737;49.760;6.632;2023-01-05T23:09:13;1.80;;;0.90;;
28529;SDS011;15737;49.760;6.632;2023-01-05T23:11:40;0.70;;;0.70;;
28529;SDS011;15737;49.760;6.632;2023-01-05T23:14:07;0.90;;;0.90;;
28529;SDS011;15737;49.760;6.632;2023-01-05T23:21:41;3.07;;;1.03;;
28529;SDS011;15737;49.760;6.632;2023-01-05T23:24:07;0.50;;;0.50;;
28529;SDS011;15737;49.760;6.632;2023-01-05T23:26:39;0.83;;;0.80;;
28529;SDS011;15737;49.760;6.632;2023-01-05T23:29:33;0.87;;;0.87;;
28529;SDS011;15737;49.760;6.632;2023-01-05T23:31:58;2.23;;;1.00;;
28529;SDS011;15737;49.760;6.632;2023-01-05T23:37:08;0.57;;;0.57;;
28529;SDS011;15737;49.760;6.632;2023-01-05T23:39:33;0.77;;;0.77;;
28529;SDS011;15737;49.760;6.632;2023-01-05T23:42:40;1.17;;;0.50;;
28529;SDS011;15737;49.760;6.632;2023-01-05T23:45:13;0.40;;;0.40;;
28529;SDS011;15737;49.760;6.632;2023-01-05T23:48:21;1.30;;;0.30;;
28529;SDS011;15737;49.760;6.632;2023-01-05T23:50:51;0.30;;;0.30;;
28529;SDS011;15737;49.760;6.632;2023-01-05T23:59:04;0.33;;;0.30;;
